sensor_id;sensor_type;location;lat;lon;timestamp;pressure;altitude;pressure_sealevel;temperature;humidity
49030;BME280;43337;52.070;4.508;2023-02-12T00:02:24;104021.78;;;7.54;100.00
49030;BME280;43337;52.070;4.508;2023-02-12T00:04:49;104020.00;;;7.53;100.00
49030;BME280;43337;52.070;4.508;2023-02-12T00:07:15;104015.56;;;7.51;100.00
49030;BME280;43337;52.070;4.508;2023-02-12T00:09:41;104008.59;;;7.51;100.00
49030;BME280;43337;52.070;4.508;2023-02-12T00:12:07;104019.97;;;7.52;100.00
49030;BME280;43337;52.070;4.508;2023-02-12T00:14:32;104009.41;;;7.49;100.00
49030;BME280;43337;52.070;4.508;2023-02-12T00:16:59;104017.31;;;7.50;100.00
49030;BME280;43337;52.070;4.508;2023-02-12T00:19:24;104010.28;;;7.49;100.00
49030;BME280;43337;52.070;4.508;2023-02-12T00:21:50;104011.94;;;7.44;100.00
49030;BME280;43337;52.070;4.508;2023-02-12T00:24:15;104014.59;;;7.46;100.00
49030;BME280;43337;52.070;4.508;2023-02-12T00:26:40;104010.00;;;7.37;100.00
49030;BME280;43337;52.070;4.508;2023-02-12T00:29:06;104015.41;;;7.43;100.00
49030;BME280;43337;52.070;4.508;2023-02-12T00:31:31;104009.34;;;7.46;100.00
49030;BME280;43337;52.070;4.508;2023-02-12T00:33:58;104019.78;;;7.44;100.00
49030;BME280;43337;52.070;4.508;2023-02-12T00:36:25;104026.00;;;7.48;100.00
49030;BME280;43337;52.070;4.508;2023-02-12T00:38:52;104013.59;;;7.41;100.00
49030;BME280;43337;52.070;4.508;2023-02-12T00:41:18;104021.59;;;7.47;100.00
49030;BME280;43337;52.070;4.508;2023-02-12T00:43:44;104011.03;;;7.42;100.00
49030;BME280;43337;52.070;4.508;2023-02-12T00:46:10;104019.78;;;7.43;100.00
49030;BME280;43337;52.070;4.508;2023-02-12T00:48:35;103997.00;;;7.42;100.00
49030;BME280;43337;52.070;4.508;2023-02-12T00:51:02;104003.09;;;7.39;100.00
49030;BME280;43337;52.070;4.508;2023-02-12T00:53:28;104012.81;;;7.45;100.00
49030;BME280;43337;52.070;4.508;2023-02-12T00:55:53;104006.50;;;7.37;100.00
49030;BME280;43337;52.070;4.508;2023-02-12T00:58:19;103999.63;;;7.42;100.00
49030;BME280;43337;52.070;4.508;2023-02-12T01:00:44;104012.78;;;7.43;100.00
49030;BME280;43337;52.070;4.508;2023-02-12T01:03:10;104010.09;;;7.40;100.00
49030;BME280;43337;52.070;4.508;2023-02-12T01:05:36;104013.66;;;7.42;100.00
49030;BME280;43337;52.070;4.508;2023-02-12T01:08:02;103999.50;;;7.36;100.00
49030;BME280;43337;52.070;4.508;2023-02-12T01:10:28;104016.22;;;7.41;100.00
49030;BME280;43337;52.070;4.508;2023-02-12T01:12:53;103970.31;;;7.19;100.00
49030;BME280;43337;52.070;4.508;2023-02-12T01:15:18;104006.50;;;7.35;100.00
49030;BME280;43337;52.070;4.508;2023-02-12T01:17:44;104012.63;;;7.36;100.00
49030;BME280;43337;52.070;4.508;2023-02-12T01:20:15;104002.91;;;7.31;100.00
49030;BME280;43337;52.070;4.508;2023-02-12T01:22:43;104006.44;;;7.33;100.00
49030;BME280;43337;52.070;4.508;2023-02-12T01:25:09;104004.69;;;7.34;100.00
49030;BME280;43337;52.070;4.508;2023-02-12T01:27:35;104009.94;;;7.34;100.00
49030;BME280;43337;52.070;4.508;2023-02-12T01:30:10;104001.09;;;7.27;100.00
49030;BME280;43337;52.070;4.508;2023-02-12T01:32:36;103998.47;;;7.29;100.00
49030;BME280;43337;52.070;4.508;2023-02-12T01:35:06;104002.06;;;7.34;100.00
49030;BME280;43337;52.070;4.508;2023-02-12T01:37:34;104006.44;;;7.33;100.00
49030;BME280;43337;52.070;4.508;2023-02-12T01:40:00;103999.28;;;7.26;100.00
49030;BME280;43337;52.070;4.508;2023-02-12T01:42:26;104010.78;;;7.31;100.00
49030;BME280;43337;52.070;4.508;2023-02-12T01:47:39;104010.78;;;7.31;100.00
49030;BME280;43337;52.070;4.508;2023-02-12T01:50:06;104008.09;;;7.28;100.00
49030;BME280;43337;52.070;4.508;2023-02-12T01:52:35;103996.66;;;7.26;100.00
49030;BME280;43337;52.070;4.508;2023-02-12T01:55:05;104007.16;;;7.26;100.00
49030;BME280;43337;52.070;4.508;2023-02-12T01:57:34;104012.47;;;7.29;100.00
49030;BME280;43337;52.070;4.508;2023-02-12T02:00:03;104008.09;;;7.28;100.00
49030;BME280;43337;52.070;4.508;2023-02-12T02:02:30;104000.91;;;7.20;100.00
49030;BME280;43337;52.070;4.508;2023-02-12T02:05:02;103999.97;;;7.18;100.00
49030;BME280;43337;52.070;4.508;2023-02-12T02:07:29;104008.88;;;7.24;100.00
49030;BME280;43337;52.070;4.508;2023-02-12T02:09:55;104007.16;;;7.26;100.00
49030;BME280;43337;52.070;4.508;2023-02-12T02:12:20;104013.31;;;7.27;100.00
49030;BME280;43337;52.070;4.508;2023-02-12T02:15:05;104010.56;;;7.22;100.00
49030;BME280;43337;52.070;4.508;2023-02-12T02:20:49;104017.63;;;7.26;100.00
49030;BME280;43337;52.070;4.508;2023-02-12T02:31:25;104011.47;;;7.23;100.00
49030;BME280;43337;52.070;4.508;2023-02-12T02:34:13;104011.41;;;7.21;100.00
49030;BME280;43337;52.070;4.508;2023-02-12T02:39:32;104006.97;;;7.17;100.00
49030;BME280;43337;52.070;4.508;2023-02-12T02:44:36;104010.47;;;7.18;100.00
49030;BME280;43337;52.070;4.508;2023-02-12T02:47:06;104014.00;;;7.20;100.00
49030;BME280;43337;52.070;4.508;2023-02-12T02:49:38;104006.09;;;7.18;100.00
49030;BME280;43337;52.070;4.508;2023-02-12T02:52:16;104004.41;;;7.19;100.00
49030;BME280;43337;52.070;4.508;2023-02-12T02:54:47;104007.00;;;7.19;100.00
49030;BME280;43337;52.070;4.508;2023-02-12T02:57:16;104006.97;;;7.17;100.00
49030;BME280;43337;52.070;4.508;2023-02-12T02:59:49;104011.31;;;7.17;100.00
49030;BME280;43337;52.070;4.508;2023-02-12T03:02:36;104006.06;;;7.15;100.00
49030;BME280;43337;52.070;4.508;2023-02-12T03:05:09;103989.31;;;7.08;100.00
49030;BME280;43337;52.070;4.508;2023-02-12T03:07:47;103993.66;;;7.08;100.00
49030;BME280;43337;52.070;4.508;2023-02-12T03:10:18;104004.25;;;7.14;100.00
49030;BME280;43337;52.070;4.508;2023-02-12T03:13:02;103996.38;;;7.13;100.00
49030;BME280;43337;52.070;4.508;2023-02-12T03:15:48;104000.69;;;7.10;100.00
49030;BME280;43337;52.070;4.508;2023-02-12T03:18:21;103994.63;;;7.13;100.00
49030;BME280;43337;52.070;4.508;2023-02-12T03:20:54;103992.88;;;7.12;100.00
49030;BME280;43337;52.070;4.508;2023-02-12T03:23:24;103999.00;;;7.13;100.00
49030;BME280;43337;52.070;4.508;2023-02-12T03:28:41;103998.97;;;7.11;100.00
49030;BME280;43337;52.070;4.508;2023-02-12T03:31:16;103999.84;;;7.12;100.00
49030;BME280;43337;52.070;4.508;2023-02-12T03:36:47;103987.59;;;7.10;100.00
49030;BME280;43337;52.070;4.508;2023-02-12T03:42:33;103990.09;;;7.06;100.00
49030;BME280;43337;52.070;4.508;2023-02-12T03:45:13;103983.09;;;7.05;100.00
49030;BME280;43337;52.070;4.508;2023-02-12T03:48:00;103988.38;;;7.06;100.00
49030;BME280;43337;52.070;4.508;2023-02-12T03:52:56;103997.09;;;7.05;100.00
49030;BME280;43337;52.070;4.508;2023-02-12T03:55:22;103984.69;;;6.98;100.00
49030;BME280;43337;52.070;4.508;2023-02-12T03:57:51;103994.47;;;7.05;100.00
49030;BME280;43337;52.070;4.508;2023-02-12T04:00:24;104007.63;;;7.08;100.00
49030;BME280;43337;52.070;4.508;2023-02-12T04:02:50;104003.28;;;7.09;100.00
49030;BME280;43337;52.070;4.508;2023-02-12T04:05:21;103993.56;;;7.03;100.00
49030;BME280;43337;52.070;4.508;2023-02-12T04:07:48;104003.25;;;7.07;100.00
49030;BME280;43337;52.070;4.508;2023-02-12T04:10:15;104007.63;;;7.08;100.00
49030;BME280;43337;52.070;4.508;2023-02-12T04:17:56;104015.53;;;7.10;100.00
49030;BME280;43337;52.070;4.508;2023-02-12T04:23:26;104019.88;;;7.09;100.00
49030;BME280;43337;52.070;4.508;2023-02-12T04:29:04;104021.66;;;7.10;100.00
49030;BME280;43337;52.070;4.508;2023-02-12T04:31:37;104021.69;;;7.12;100.00
49030;BME280;43337;52.070;4.508;2023-02-12T04:36:58;104033.94;;;7.13;100.00
49030;BME280;43337;52.070;4.508;2023-02-12T04:39:28;104028.63;;;7.10;100.00
49030;BME280;43337;52.070;4.508;2023-02-12T04:41:59;104032.09;;;7.09;100.00
49030;BME280;43337;52.070;4.508;2023-02-12T04:44:27;104026.84;;;7.09;100.00
49030;BME280;43337;52.070;4.508;2023-02-12T04:46:53;104025.81;;;7.01;100.00
49030;BME280;43337;52.070;4.508;2023-02-12T04:49:20;104013.41;;;6.95;100.00
49030;BME280;43337;52.070;4.508;2023-02-12T04:51:46;104036.47;;;7.10;100.00
49030;BME280;43337;52.070;4.508;2023-02-12T04:54:13;104036.38;;;7.05;100.00
49030;BME280;43337;52.070;4.508;2023-02-12T04:56:39;104038.22;;;7.09;100.00
49030;BME280;43337;52.070;4.508;2023-02-12T04:59:04;104016.97;;;6.97;100.00
49030;BME280;43337;52.070;4.508;2023-02-12T05:01:32;104043.44;;;7.08;100.00
49030;BME280;43337;52.070;4.508;2023-02-12T05:03:58;104032.84;;;7.03;100.00
49030;BME280;43337;52.070;4.508;2023-02-12T05:06:23;104024.94;;;7.02;100.00
49030;BME280;43337;52.070;4.508;2023-02-12T05:08:51;104028.53;;;7.05;100.00
49030;BME280;43337;52.070;4.508;2023-02-12T05:11:17;104028.41;;;7.01;100.00
49030;BME280;43337;52.070;4.508;2023-02-12T05:13:42;104031.13;;;7.04;100.00
49030;BME280;43337;52.070;4.508;2023-02-12T05:16:07;104036.31;;;7.02;100.00
49030;BME280;43337;52.070;4.508;2023-02-12T05:18:34;104003.78;;;6.93;100.00
49030;BME280;43337;52.070;4.508;2023-02-12T05:21:02;104014.38;;;6.97;100.00
49030;BME280;43337;52.070;4.508;2023-02-12T05:23:29;104016.09;;;6.97;100.00
49030;BME280;43337;52.070;4.508;2023-02-12T05:25:58;104031.91;;;7.01;100.00
49030;BME280;43337;52.070;4.508;2023-02-12T05:28:23;104010.78;;;6.94;100.00
49030;BME280;43337;52.070;4.508;2023-02-12T05:30:49;104029.28;;;7.00;100.00
49030;BME280;43337;52.070;4.508;2023-02-12T05:33:14;104033.66;;;7.01;100.00
49030;BME280;43337;52.070;4.508;2023-02-12T05:35:40;104032.69;;;6.97;100.00
49030;BME280;43337;52.070;4.508;2023-02-12T05:38:05;104014.97;;;6.87;100.00
49030;BME280;43337;52.070;4.508;2023-02-12T05:40:32;104035.34;;;6.99;100.00
49030;BME280;43337;52.070;4.508;2023-02-12T05:42:58;104022.22;;;6.97;100.00
49030;BME280;43337;52.070;4.508;2023-02-12T05:45:23;104022.19;;;6.96;100.00
49030;BME280;43337;52.070;4.508;2023-02-12T05:47:52;104038.03;;;7.00;100.00
49030;BME280;43337;52.070;4.508;2023-02-12T05:50:19;104028.34;;;6.98;100.00
49030;BME280;43337;52.070;4.508;2023-02-12T05:52:44;104028.25;;;6.95;100.00
49030;BME280;43337;52.070;4.508;2023-02-12T05:55:10;104013.28;;;6.89;100.00
49030;BME280;43337;52.070;4.508;2023-02-12T05:57:35;104036.28;;;7.01;100.00
49030;BME280;43337;52.070;4.508;2023-02-12T06:00:02;104040.63;;;7.00;100.00
49030;BME280;43337;52.070;4.508;2023-02-12T06:02:28;104041.44;;;6.98;100.00
49030;BME280;43337;52.070;4.508;2023-02-12T06:04:53;104018.47;;;6.88;100.00
49030;BME280;43337;52.070;4.508;2023-02-12T06:07:19;104040.44;;;6.93;100.00
49030;BME280;43337;52.070;4.508;2023-02-12T06:09:44;104039.59;;;6.94;100.00
49030;BME280;43337;52.070;4.508;2023-02-12T06:12:10;104029.91;;;6.90;100.00
49030;BME280;43337;52.070;4.508;2023-02-12T06:14:35;104034.34;;;6.94;100.00
49030;BME280;43337;52.070;4.508;2023-02-12T06:17:00;104033.47;;;6.93;100.00
49030;BME280;43337;52.070;4.508;2023-02-12T06:19:27;104028.25;;;6.95;100.00
49030;BME280;43337;52.070;4.508;2023-02-12T06:21:53;104029.91;;;6.91;100.00
49030;BME280;43337;52.070;4.508;2023-02-12T06:24:18;104032.63;;;6.94;100.00
49030;BME280;43337;52.070;4.508;2023-02-12T06:26:44;104032.59;;;6.93;100.00
49030;BME280;43337;52.070;4.508;2023-02-12T06:29:10;104020.19;;;6.85;100.00
49030;BME280;43337;52.070;4.508;2023-02-12T06:31:37;104026.34;;;6.88;100.00
49030;BME280;43337;52.070;4.508;2023-02-12T06:34:05;104033.41;;;6.92;100.00
49030;BME280;43337;52.070;4.508;2023-02-12T06:36:31;104031.56;;;6.86;100.00
49030;BME280;43337;52.070;4.508;2023-02-12T06:38:57;104022.84;;;6.87;100.00
49030;BME280;43337;52.070;4.508;2023-02-12T06:41:22;104031.63;;;6.89;100.00
49030;BME280;43337;52.070;4.508;2023-02-12T06:43:48;104033.41;;;6.90;100.00
49030;BME280;43337;52.070;4.508;2023-02-12T06:46:14;104032.34;;;6.83;100.00
49030;BME280;43337;52.070;4.508;2023-02-12T06:48:39;104043.84;;;6.89;100.00
49030;BME280;43337;52.070;4.508;2023-02-12T06:51:11;104037.72;;;6.88;100.00
49030;BME280;43337;52.070;4.508;2023-02-12T06:53:36;104038.47;;;6.84;100.00
49030;BME280;43337;52.070;4.508;2023-02-12T06:56:07;104041.91;;;6.81;100.00
49030;BME280;43337;52.070;4.508;2023-02-12T06:58:42;104045.59;;;6.88;100.00
49030;BME280;43337;52.070;4.508;2023-02-12T07:01:19;104044.66;;;6.88;100.00
49030;BME280;43337;52.070;4.508;2023-02-12T07:03:51;104048.19;;;6.88;100.00
49030;BME280;43337;52.070;4.508;2023-02-12T07:06:17;104055.22;;;6.89;100.00
49030;BME280;43337;52.070;4.508;2023-02-12T07:08:42;104058.69;;;6.90;100.00
49030;BME280;43337;52.070;4.508;2023-02-12T07:11:08;104057.84;;;6.91;100.00
49030;BME280;43337;52.070;4.508;2023-02-12T07:13:34;104055.16;;;6.88;100.00
49030;BME280;43337;52.070;4.508;2023-02-12T07:16:07;104050.66;;;6.82;100.00
49030;BME280;43337;52.070;4.508;2023-02-12T07:18:34;104063.00;;;6.88;100.00
49030;BME280;43337;52.070;4.508;2023-02-12T07:21:00;104051.63;;;6.85;100.00
49030;BME280;43337;52.070;4.508;2023-02-12T07:23:26;104072.72;;;6.92;100.00
49030;BME280;43337;52.070;4.508;2023-02-12T07:25:59;104071.72;;;6.87;100.00
49030;BME280;43337;52.070;4.508;2023-02-12T07:28:24;104076.94;;;6.87;100.00
49030;BME280;43337;52.070;4.508;2023-02-12T07:30:50;104093.59;;;6.89;100.00
49030;BME280;43337;52.070;4.508;2023-02-12T07:33:16;104084.00;;;6.89;100.00
49030;BME280;43337;52.070;4.508;2023-02-12T07:35:41;104077.81;;;6.85;100.00
49030;BME280;43337;52.070;4.508;2023-02-12T07:38:07;104083.97;;;6.88;100.00
49030;BME280;43337;52.070;4.508;2023-02-12T07:40:32;104083.91;;;6.84;100.00
49030;BME280;43337;52.070;4.508;2023-02-12T07:42:57;104077.66;;;6.79;100.00
49030;BME280;43337;52.070;4.508;2023-02-12T07:45:23;104091.03;;;6.92;100.00
49030;BME280;43337;52.070;4.508;2023-02-12T07:47:49;104091.91;;;6.91;100.00
49030;BME280;43337;52.070;4.508;2023-02-12T07:50:14;104104.22;;;6.95;100.00
49030;BME280;43337;52.070;4.508;2023-02-12T07:52:40;104105.97;;;6.94;100.00
49030;BME280;43337;52.070;4.508;2023-02-12T07:55:05;104089.34;;;6.92;100.00
49030;BME280;43337;52.070;4.508;2023-02-12T07:57:31;104094.69;;;6.97;100.00
49030;BME280;43337;52.070;4.508;2023-02-12T07:59:56;104087.63;;;6.94;100.00
49030;BME280;43337;52.070;4.508;2023-02-12T08:02:22;104082.38;;;6.94;100.00
49030;BME280;43337;52.070;4.508;2023-02-12T08:04:57;104079.75;;;6.94;100.00
49030;BME280;43337;52.070;4.508;2023-02-12T08:07:22;104100.13;;;7.04;100.00
49030;BME280;43337;52.070;4.508;2023-02-12T08:09:48;104100.06;;;7.03;100.00
49030;BME280;43337;52.070;4.508;2023-02-12T08:12:13;104083.47;;;7.02;100.00
49030;BME280;43337;52.070;4.508;2023-02-12T08:14:39;104093.16;;;7.06;100.00
49030;BME280;43337;52.070;4.508;2023-02-12T08:17:05;104091.31;;;7.02;100.00
49030;BME280;43337;52.070;4.508;2023-02-12T08:19:30;104095.78;;;7.06;100.00
49030;BME280;43337;52.070;4.508;2023-02-12T08:21:56;104098.56;;;7.13;100.00
49030;BME280;43337;52.070;4.508;2023-02-12T08:24:23;104095.97;;;7.14;100.00
49030;BME280;43337;52.070;4.508;2023-02-12T08:26:49;104107.31;;;7.13;100.00
49030;BME280;43337;52.070;4.508;2023-02-12T08:29:18;104098.66;;;7.17;100.00
49030;BME280;43337;52.070;4.508;2023-02-12T08:31:46;104098.66;;;7.16;100.00
49030;BME280;43337;52.070;4.508;2023-02-12T08:34:20;104096.03;;;7.17;100.00
49030;BME280;43337;52.070;4.508;2023-02-12T08:36:47;104108.44;;;7.23;100.00
49030;BME280;43337;52.070;4.508;2023-02-12T08:39:13;104096.16;;;7.22;100.00
49030;BME280;43337;52.070;4.508;2023-02-12T08:41:39;104116.50;;;7.32;100.00
49030;BME280;43337;52.070;4.508;2023-02-12T08:44:06;104106.81;;;7.29;100.00
49030;BME280;43337;52.070;4.508;2023-02-12T08:46:35;104110.38;;;7.31;100.00
49030;BME280;43337;52.070;4.508;2023-02-12T08:49:04;104122.81;;;7.40;100.00
49030;BME280;43337;52.070;4.508;2023-02-12T08:51:33;104122.81;;;7.40;100.00
49030;BME280;43337;52.070;4.508;2023-02-12T08:54:02;104108.75;;;7.37;100.00
49030;BME280;43337;52.070;4.508;2023-02-12T08:56:30;104123.84;;;7.47;100.00
49030;BME280;43337;52.070;4.508;2023-02-12T08:58:56;104117.66;;;7.43;100.00
49030;BME280;43337;52.070;4.508;2023-02-12T09:01:24;104122.97;;;7.46;100.00
49030;BME280;43337;52.070;4.508;2023-02-12T09:03:50;104137.06;;;7.53;100.00
49030;BME280;43337;52.070;4.508;2023-02-12T09:06:18;104132.78;;;7.55;100.00
49030;BME280;43337;52.070;4.508;2023-02-12T09:08:44;104135.47;;;7.58;100.00
49030;BME280;43337;52.070;4.508;2023-02-12T09:11:12;104142.56;;;7.62;100.00
49030;BME280;43337;52.070;4.508;2023-02-12T09:13:38;104137.38;;;7.65;100.00
49030;BME280;43337;52.070;4.508;2023-02-12T09:16:05;104117.91;;;7.54;100.00
49030;BME280;43337;52.070;4.508;2023-02-12T09:18:31;104136.56;;;7.68;100.00
49030;BME280;43337;52.070;4.508;2023-02-12T09:21:15;104131.19;;;7.62;100.00
49030;BME280;43337;52.070;4.508;2023-02-12T09:23:42;104133.91;;;7.66;100.00
49030;BME280;43337;52.070;4.508;2023-02-12T09:26:10;104140.19;;;7.73;100.00
49030;BME280;43337;52.070;4.508;2023-02-12T09:28:36;104132.19;;;7.68;100.00
49030;BME280;43337;52.070;4.508;2023-02-12T09:33:31;104147.28;;;7.78;100.00
49030;BME280;43337;52.070;4.508;2023-02-12T09:36:00;104144.66;;;7.78;100.00
49030;BME280;43337;52.070;4.508;2023-02-12T09:38:27;104134.06;;;7.74;100.00
49030;BME280;43337;52.070;4.508;2023-02-12T09:44:01;104139.59;;;7.88;100.00
49030;BME280;43337;52.070;4.508;2023-02-12T09:46:41;104144.03;;;7.89;100.00
49030;BME280;43337;52.070;4.508;2023-02-12T09:49:25;104145.00;;;7.94;100.00
49030;BME280;43337;52.070;4.508;2023-02-12T09:51:56;104132.69;;;7.90;100.00
49030;BME280;43337;52.070;4.508;2023-02-12T09:54:25;104144.22;;;7.98;100.00
49030;BME280;43337;52.070;4.508;2023-02-12T09:56:55;104117.75;;;7.87;100.00
49030;BME280;43337;52.070;4.508;2023-02-12T09:59:37;104148.69;;;8.02;100.00
49030;BME280;43337;52.070;4.508;2023-02-12T10:02:15;104146.09;;;8.03;100.00
49030;BME280;43337;52.070;4.508;2023-02-12T10:04:45;104147.88;;;8.06;100.00
49030;BME280;43337;52.070;4.508;2023-02-12T10:07:17;104143.56;;;8.08;100.00
49030;BME280;43337;52.070;4.508;2023-02-12T10:12:34;104137.47;;;8.09;100.00
49030;BME280;43337;52.070;4.508;2023-02-12T10:26:27;104139.38;;;8.16;100.00
49030;BME280;43337;52.070;4.508;2023-02-12T10:28:58;104138.66;;;8.23;100.00
49030;BME280;43337;52.070;4.508;2023-02-12T10:31:32;104141.34;;;8.26;100.00
49030;BME280;43337;52.070;4.508;2023-02-12T10:34:11;104143.97;;;8.26;100.00
49030;BME280;43337;52.070;4.508;2023-02-12T10:36:45;104136.09;;;8.26;100.00
49030;BME280;43337;52.070;4.508;2023-02-12T10:39:23;104143.19;;;8.32;100.00
49030;BME280;43337;52.070;4.508;2023-02-12T10:46:46;104146.81;;;8.37;100.00
49030;BME280;43337;52.070;4.508;2023-02-12T10:49:14;104142.44;;;8.38;100.00
49030;BME280;43337;52.070;4.508;2023-02-12T10:54:56;104137.25;;;8.41;100.00
49030;BME280;43337;52.070;4.508;2023-02-12T10:57:26;104132.94;;;8.43;100.00
49030;BME280;43337;52.070;4.508;2023-02-12T10:59:56;104138.28;;;8.47;100.00
49030;BME280;43337;52.070;4.508;2023-02-12T11:04:49;104130.38;;;8.46;100.00
49030;BME280;43337;52.070;4.508;2023-02-12T11:07:17;104134.03;;;8.54;100.00
49030;BME280;43337;52.070;4.508;2023-02-12T11:09:46;104137.50;;;8.53;100.00
49030;BME280;43337;52.070;4.508;2023-02-12T11:12:18;104132.34;;;8.58;100.00
49030;BME280;43337;52.070;4.508;2023-02-12T11:14:53;104131.50;;;8.59;100.00
49030;BME280;43337;52.070;4.508;2023-02-12T11:17:24;104126.25;;;8.60;100.00
49030;BME280;43337;52.070;4.508;2023-02-12T11:22:58;104127.09;;;8.58;100.00
49030;BME280;43337;52.070;4.508;2023-02-12T11:25:30;104115.66;;;8.55;100.00
49030;BME280;43337;52.070;4.508;2023-02-12T11:28:03;104113.09;;;8.59;100.00
49030;BME280;43337;52.070;4.508;2023-02-12T11:30:29;104128.91;;;8.62;100.00
49030;BME280;43337;52.070;4.508;2023-02-12T11:33:14;104134.19;;;8.63;100.00
49030;BME280;43337;52.070;4.508;2023-02-12T11:35:58;104128.91;;;8.62;100.00
49030;BME280;43337;52.070;4.508;2023-02-12T11:38:30;104123.69;;;8.63;100.00
49030;BME280;43337;52.070;4.508;2023-02-12T11:41:04;104114.94;;;8.63;100.00
49030;BME280;43337;52.070;4.508;2023-02-12T11:43:33;104114.91;;;8.61;100.00
49030;BME280;43337;52.070;4.508;2023-02-12T11:46:02;104112.25;;;8.60;100.00
49030;BME280;43337;52.070;4.508;2023-02-12T11:48:36;104121.94;;;8.62;100.00
49030;BME280;43337;52.070;4.508;2023-02-12T11:51:07;104116.66;;;8.62;100.00
49030;BME280;43337;52.070;4.508;2023-02-12T11:53:41;104109.59;;;8.60;100.00
49030;BME280;43337;52.070;4.508;2023-02-12T11:56:10;104109.69;;;8.64;100.00
49030;BME280;43337;52.070;4.508;2023-02-12T11:58:36;104110.56;;;8.65;100.00
49030;BME280;43337;52.070;4.508;2023-02-12T12:03:44;104112.38;;;8.66;100.00
49030;BME280;43337;52.070;4.508;2023-02-12T12:06:40;104106.22;;;8.65;100.00
49030;BME280;43337;52.070;4.508;2023-02-12T12:09:15;104114.19;;;8.70;100.00
49030;BME280;43337;52.070;4.508;2023-02-12T12:11:56;104113.31;;;8.71;100.00
49030;BME280;43337;52.070;4.508;2023-02-12T12:14:33;104107.19;;;8.72;100.00
49030;BME280;43337;52.070;4.508;2023-02-12T12:17:25;104107.19;;;8.72;100.00
49030;BME280;43337;52.070;4.508;2023-02-12T12:20:16;104101.94;;;8.72;100.00
49030;BME280;43337;52.070;4.508;2023-02-12T12:23:13;104111.63;;;8.74;100.00
49030;BME280;43337;52.070;4.508;2023-02-12T12:25:49;104098.50;;;8.74;100.00
49030;BME280;43337;52.070;4.508;2023-02-12T12:28:32;104095.88;;;8.76;100.00
49030;BME280;43337;52.070;4.508;2023-02-12T12:31:08;104098.50;;;8.76;100.00
49030;BME280;43337;52.070;4.508;2023-02-12T12:39:06;104092.31;;;8.72;100.00
49030;BME280;43337;52.070;4.508;2023-02-12T12:47:04;104091.41;;;8.69;100.00
49030;BME280;43337;52.070;4.508;2023-02-12T12:49:49;104072.03;;;8.64;100.00
49030;BME280;43337;52.070;4.508;2023-02-12T13:06:07;104074.66;;;8.62;100.00
49030;BME280;43337;52.070;4.508;2023-02-12T13:09:02;104079.03;;;8.62;100.00
49030;BME280;43337;52.070;4.508;2023-02-12T13:14:32;104068.47;;;8.59;100.00
49030;BME280;43337;52.070;4.508;2023-02-12T13:17:09;104065.81;;;8.59;100.00
49030;BME280;43337;52.070;4.508;2023-02-12T13:22:21;104056.13;;;8.56;100.00
49030;BME280;43337;52.070;4.508;2023-02-12T13:24:55;104057.88;;;8.55;100.00
49030;BME280;43337;52.070;4.508;2023-02-12T13:27:27;104041.13;;;8.49;100.00
49030;BME280;43337;52.070;4.508;2023-02-12T13:30:19;104049.00;;;8.47;100.00
49030;BME280;43337;52.070;4.508;2023-02-12T13:33:00;104039.38;;;8.48;100.00
49030;BME280;43337;52.070;4.508;2023-02-12T13:35:28;104048.19;;;8.50;100.00
49030;BME280;43337;52.070;4.508;2023-02-12T13:37:54;104031.41;;;8.43;100.00
49030;BME280;43337;52.070;4.508;2023-02-12T13:40:26;104051.69;;;8.52;100.00
49030;BME280;43337;52.070;4.508;2023-02-12T13:43:20;104045.56;;;8.50;100.00
49030;BME280;43337;52.070;4.508;2023-02-12T13:46:17;104052.50;;;8.48;100.00
49030;BME280;43337;52.070;4.508;2023-02-12T13:48:59;104047.25;;;8.48;100.00
49030;BME280;43337;52.070;4.508;2023-02-12T13:52:05;104039.31;;;8.45;100.00
49030;BME280;43337;52.070;4.508;2023-02-12T13:57:15;104033.25;;;8.47;100.00
49030;BME280;43337;52.070;4.508;2023-02-12T13:59:43;104035.88;;;8.49;100.00
49030;BME280;43337;52.070;4.508;2023-02-12T14:02:39;104039.44;;;8.52;100.00
49030;BME280;43337;52.070;4.508;2023-02-12T14:05:23;104024.50;;;8.48;100.00
49030;BME280;43337;52.070;4.508;2023-02-12T14:07:55;104024.44;;;8.45;100.00
49030;BME280;43337;52.070;4.508;2023-02-12T14:10:25;104014.84;;;8.47;100.00
49030;BME280;43337;52.070;4.508;2023-02-12T14:12:54;104018.34;;;8.46;100.00
49030;BME280;43337;52.070;4.508;2023-02-12T14:15:35;104013.09;;;8.46;100.00
49030;BME280;43337;52.070;4.508;2023-02-12T14:18:05;104011.28;;;8.44;100.00
49030;BME280;43337;52.070;4.508;2023-02-12T14:20:33;104011.28;;;8.42;100.00
49030;BME280;43337;52.070;4.508;2023-02-12T14:23:21;104016.53;;;8.44;100.00
49030;BME280;43337;52.070;4.508;2023-02-12T14:25:58;104022.78;;;8.50;100.00
49030;BME280;43337;52.070;4.508;2023-02-12T14:28:40;104019.31;;;8.51;100.00
49030;BME280;43337;52.070;4.508;2023-02-12T14:33:51;104012.22;;;8.47;100.00
49030;BME280;43337;52.070;4.508;2023-02-12T14:41:42;103999.97;;;8.48;100.00
49030;BME280;43337;52.070;4.508;2023-02-12T14:46:53;104007.91;;;8.49;100.00
49030;BME280;43337;52.070;4.508;2023-02-12T14:57:36;104012.22;;;8.46;100.00
49030;BME280;43337;52.070;4.508;2023-02-12T15:00:31;104005.19;;;8.45;100.00
49030;BME280;43337;52.070;4.508;2023-02-12T15:03:18;104004.28;;;8.43;100.00
49030;BME280;43337;52.070;4.508;2023-02-12T15:06:03;103993.72;;;8.40;100.00
49030;BME280;43337;52.070;4.508;2023-02-12T15:08:44;103986.59;;;8.34;100.00
49030;BME280;43337;52.070;4.508;2023-02-12T15:14:04;103990.94;;;8.32;100.00
49030;BME280;43337;52.070;4.508;2023-02-12T15:16:34;103990.97;;;8.35;100.00
49030;BME280;43337;52.070;4.508;2023-02-12T15:19:17;103999.69;;;8.32;100.00
49030;BME280;43337;52.070;4.508;2023-02-12T15:21:45;104001.44;;;8.32;100.00
49030;BME280;43337;52.070;4.508;2023-02-12T15:24:12;103979.41;;;8.24;100.00